sensor_id;sensor_type;location;lat;lon;timestamp;temperature;humidity
19567;DHT22;9930;49.240;8.548;2023-08-30T03:27:18;18.40;77.90
19567;DHT22;9930;49.240;8.548;2023-08-30T03:30:19;18.50;77.70
19567;DHT22;9930;49.240;8.548;2023-08-30T03:33:22;18.40;77.50
19567;DHT22;9930;49.240;8.548;2023-08-30T03:36:22;18.40;78.00
19567;DHT22;9930;49.240;8.548;2023-08-30T03:43:13;18.50;77.90
19567;DHT22;9930;49.240;8.548;2023-08-30T03:49:20;18.50;78.30
19567;DHT22;9930;49.240;8.548;2023-08-30T03:52:12;18.40;77.80
19567;DHT22;9930;49.240;8.548;2023-08-30T03:55:31;18.50;78.30
19567;DHT22;9930;49.240;8.548;2023-08-30T03:58:25;18.40;77.70
19567;DHT22;9930;49.240;8.548;2023-08-30T04:01:16;18.40;77.90
19567;DHT22;9930;49.240;8.548;2023-08-30T04:06:56;18.50;77.80
19567;DHT22;9930;49.240;8.548;2023-08-30T04:09:25;18.50;78.00
19567;DHT22;9930;49.240;8.548;2023-08-30T04:12:00;18.50;77.80
19567;DHT22;9930;49.240;8.548;2023-08-30T04:14:43;18.40;77.70
19567;DHT22;9930;49.240;8.548;2023-08-30T04:17:23;18.40;77.90
19567;DHT22;9930;49.240;8.548;2023-08-30T04:20:17;18.40;77.70
19567;DHT22;9930;49.240;8.548;2023-08-30T04:23:36;18.40;78.00
19567;DHT22;9930;49.240;8.548;2023-08-30T04:26:14;18.40;78.30
19567;DHT22;9930;49.240;8.548;2023-08-30T04:28:48;18.40;77.80
19567;DHT22;9930;49.240;8.548;2023-08-30T04:31:26;18.40;77.70
19567;DHT22;9930;49.240;8.548;2023-08-30T04:33:57;18.40;77.80
19567;DHT22;9930;49.240;8.548;2023-08-30T04:36:47;18.40;77.90
19567;DHT22;9930;49.240;8.548;2023-08-30T04:39:29;18.40;78.20
19567;DHT22;9930;49.240;8.548;2023-08-30T04:42:17;18.30;78.00
19567;DHT22;9930;49.240;8.548;2023-08-30T04:44:46;18.30;78.00
19567;DHT22;9930;49.240;8.548;2023-08-30T04:47:34;18.30;78.00
19567;DHT22;9930;49.240;8.548;2023-08-30T04:54:22;18.30;78.60
19567;DHT22;9930;49.240;8.548;2023-08-30T04:57:16;18.30;78.60
19567;DHT22;9930;49.240;8.548;2023-08-30T05:00:11;18.30;78.40
19567;DHT22;9930;49.240;8.548;2023-08-30T05:03:29;18.30;78.60
19567;DHT22;9930;49.240;8.548;2023-08-30T05:06:18;18.30;78.30
19567;DHT22;9930;49.240;8.548;2023-08-30T05:39:20;18.60;79.20
19567;DHT22;9930;49.240;8.548;2023-08-30T06:24:44;19.00;79.60
19567;DHT22;9930;49.240;8.548;2023-08-30T06:27:30;19.10;79.50
19567;DHT22;9930;49.240;8.548;2023-08-30T06:30:47;19.10;79.30
19567;DHT22;9930;49.240;8.548;2023-08-30T06:33:26;19.10;79.20
19567;DHT22;9930;49.240;8.548;2023-08-30T06:36:29;19.20;79.00
19567;DHT22;9930;49.240;8.548;2023-08-30T06:39:41;19.30;79.00
19567;DHT22;9930;49.240;8.548;2023-08-30T06:45:26;19.30;78.80
19567;DHT22;9930;49.240;8.548;2023-08-30T06:48:53;19.40;78.90
19567;DHT22;9930;49.240;8.548;2023-08-30T06:52:16;19.30;78.90
19567;DHT22;9930;49.240;8.548;2023-08-30T06:55:43;19.50;79.00
19567;DHT22;9930;49.240;8.548;2023-08-30T06:58:50;19.50;78.90
19567;DHT22;9930;49.240;8.548;2023-08-30T07:01:45;19.50;79.10
19567;DHT22;9930;49.240;8.548;2023-08-30T07:09:55;19.90;79.40
19567;DHT22;9930;49.240;8.548;2023-08-30T07:21:38;20.40;78.30
19567;DHT22;9930;49.240;8.548;2023-08-30T08:13:54;21.60;74.30
19567;DHT22;9930;49.240;8.548;2023-08-30T08:16:51;21.70;74.00
19567;DHT22;9930;49.240;8.548;2023-08-30T08:20:04;21.70;73.40
19567;DHT22;9930;49.240;8.548;2023-08-30T08:32:17;22.00;73.10
19567;DHT22;9930;49.240;8.548;2023-08-30T09:15:14;23.20;70.00
19567;DHT22;9930;49.240;8.548;2023-08-30T09:29:49;23.20;70.10
19567;DHT22;9930;49.240;8.548;2023-08-30T09:33:14;23.20;68.60
19567;DHT22;9930;49.240;8.548;2023-08-30T09:42:56;23.40;68.80
19567;DHT22;9930;49.240;8.548;2023-08-30T09:46:26;23.50;68.60
19567;DHT22;9930;49.240;8.548;2023-08-30T09:49:21;23.60;68.10
19567;DHT22;9930;49.240;8.548;2023-08-30T10:18:13;24.10;66.00
19567;DHT22;9930;49.240;8.548;2023-08-30T11:29:44;25.20;62.20
19567;DHT22;9930;49.240;8.548;2023-08-30T14:56:54;25.90;52.80
19567;DHT22;9930;49.240;8.548;2023-08-30T15:00:28;26.00;52.70
19567;DHT22;9930;49.240;8.548;2023-08-30T19:14:07;21.70;59.20
19567;DHT22;9930;49.240;8.548;2023-08-30T19:16:49;21.60;59.50
19567;DHT22;9930;49.240;8.548;2023-08-30T19:19:21;21.50;59.10
19567;DHT22;9930;49.240;8.548;2023-08-30T19:22:20;21.50;59.60
19567;DHT22;9930;49.240;8.548;2023-08-30T19:25:18;21.30;60.50
19567;DHT22;9930;49.240;8.548;2023-08-30T19:28:04;21.30;60.60
19567;DHT22;9930;49.240;8.548;2023-08-30T19:31:14;21.30;60.50
19567;DHT22;9930;49.240;8.548;2023-08-30T19:34:25;21.20;61.40
19567;DHT22;9930;49.240;8.548;2023-08-30T19:37:23;21.10;61.50
19567;DHT22;9930;49.240;8.548;2023-08-30T19:40:26;21.10;60.80
19567;DHT22;9930;49.240;8.548;2023-08-30T19:43:16;21.00;63.20
19567;DHT22;9930;49.240;8.548;2023-08-30T19:46:21;20.90;63.00
19567;DHT22;9930;49.240;8.548;2023-08-30T19:54:14;21.00;62.90
19567;DHT22;9930;49.240;8.548;2023-08-30T19:57:14;20.90;64.30
19567;DHT22;9930;49.240;8.548;2023-08-30T20:00:29;21.00;63.60
19567;DHT22;9930;49.240;8.548;2023-08-30T20:03:29;20.90;63.70
19567;DHT22;9930;49.240;8.548;2023-08-30T20:06:22;21.00;64.10
19567;DHT22;9930;49.240;8.548;2023-08-30T20:08:50;20.90;64.00
19567;DHT22;9930;49.240;8.548;2023-08-30T20:11:19;21.00;64.40
19567;DHT22;9930;49.240;8.548;2023-08-30T20:13:55;20.90;64.50
19567;DHT22;9930;49.240;8.548;2023-08-30T20:16:23;20.90;64.60
19567;DHT22;9930;49.240;8.548;2023-08-30T20:18:53;20.90;64.60
19567;DHT22;9930;49.240;8.548;2023-08-30T20:21:24;20.90;65.30
19567;DHT22;9930;49.240;8.548;2023-08-30T20:23:53;20.90;64.80
19567;DHT22;9930;49.240;8.548;2023-08-30T20:26:27;20.90;64.80
19567;DHT22;9930;49.240;8.548;2023-08-30T20:28:56;20.90;65.00
19567;DHT22;9930;49.240;8.548;2023-08-30T20:31:26;20.90;65.20
19567;DHT22;9930;49.240;8.548;2023-08-30T20:33:56;20.90;65.40
19567;DHT22;9930;49.240;8.548;2023-08-30T20:36:25;20.80;65.60
19567;DHT22;9930;49.240;8.548;2023-08-30T20:38:54;20.80;65.80
19567;DHT22;9930;49.240;8.548;2023-08-30T20:41:27;20.80;66.00
19567;DHT22;9930;49.240;8.548;2023-08-30T20:43:56;20.80;66.40
19567;DHT22;9930;49.240;8.548;2023-08-30T20:46:27;20.80;66.20
19567;DHT22;9930;49.240;8.548;2023-08-30T20:48:56;20.80;66.20
19567;DHT22;9930;49.240;8.548;2023-08-30T20:51:25;20.80;66.30
19567;DHT22;9930;49.240;8.548;2023-08-30T20:53:54;20.70;66.10
19567;DHT22;9930;49.240;8.548;2023-08-30T20:56:28;20.80;66.40
19567;DHT22;9930;49.240;8.548;2023-08-30T20:59:02;20.70;66.30
19567;DHT22;9930;49.240;8.548;2023-08-30T21:01:53;20.70;66.40
19567;DHT22;9930;49.240;8.548;2023-08-30T21:04:45;20.70;67.20
19567;DHT22;9930;49.240;8.548;2023-08-30T21:07:18;20.70;67.10
19567;DHT22;9930;49.240;8.548;2023-08-30T21:09:54;20.60;66.50
19567;DHT22;9930;49.240;8.548;2023-08-30T21:12:25;20.60;66.80
19567;DHT22;9930;49.240;8.548;2023-08-30T21:14:56;20.70;66.90
19567;DHT22;9930;49.240;8.548;2023-08-30T21:18:16;20.60;67.00
19567;DHT22;9930;49.240;8.548;2023-08-30T21:21:20;20.50;67.60
19567;DHT22;9930;49.240;8.548;2023-08-30T21:24:13;20.50;67.80
19567;DHT22;9930;49.240;8.548;2023-08-30T21:27:14;20.50;67.80
19567;DHT22;9930;49.240;8.548;2023-08-30T21:30:24;20.40;67.50
19567;DHT22;9930;49.240;8.548;2023-08-30T21:33:22;20.40;67.50
19567;DHT22;9930;49.240;8.548;2023-08-30T21:36:43;20.40;68.00
19567;DHT22;9930;49.240;8.548;2023-08-30T21:39:24;20.30;68.40
19567;DHT22;9930;49.240;8.548;2023-08-30T21:48:21;20.20;68.00
19567;DHT22;9930;49.240;8.548;2023-08-30T21:50:56;20.20;67.70
19567;DHT22;9930;49.240;8.548;2023-08-30T21:53:26;20.20;67.60
19567;DHT22;9930;49.240;8.548;2023-08-30T21:55:56;20.20;67.60
19567;DHT22;9930;49.240;8.548;2023-08-30T21:58:29;20.10;67.80
19567;DHT22;9930;49.240;8.548;2023-08-30T22:01:15;20.10;68.10
19567;DHT22;9930;49.240;8.548;2023-08-30T22:03:52;20.00;68.50
19567;DHT22;9930;49.240;8.548;2023-08-30T22:06:50;20.00;68.10
19567;DHT22;9930;49.240;8.548;2023-08-30T22:09:48;20.00;68.10
19567;DHT22;9930;49.240;8.548;2023-08-30T22:12:23;20.00;68.30
19567;DHT22;9930;49.240;8.548;2023-08-30T22:15:00;20.00;68.00
19567;DHT22;9930;49.240;8.548;2023-08-30T22:17:47;20.00;68.30
19567;DHT22;9930;49.240;8.548;2023-08-30T22:20:23;19.90;68.50
19567;DHT22;9930;49.240;8.548;2023-08-30T22:22:54;19.90;68.50
19567;DHT22;9930;49.240;8.548;2023-08-30T22:25:28;19.90;68.40
19567;DHT22;9930;49.240;8.548;2023-08-30T22:28:29;19.90;68.40
19567;DHT22;9930;49.240;8.548;2023-08-30T22:31:25;19.80;69.30
19567;DHT22;9930;49.240;8.548;2023-08-30T22:34:16;19.80;68.70
19567;DHT22;9930;49.240;8.548;2023-08-30T22:37:45;19.80;68.80
19567;DHT22;9930;49.240;8.548;2023-08-30T22:40:14;19.70;69.00
19567;DHT22;9930;49.240;8.548;2023-08-30T22:42:46;19.70;68.70
19567;DHT22;9930;49.240;8.548;2023-08-30T22:45:17;19.70;69.00
19567;DHT22;9930;49.240;8.548;2023-08-30T22:47:48;19.70;68.90
19567;DHT22;9930;49.240;8.548;2023-08-30T22:50:49;19.70;69.00
19567;DHT22;9930;49.240;8.548;2023-08-30T22:53:22;19.60;69.20
19567;DHT22;9930;49.240;8.548;2023-08-30T22:55:52;19.60;68.90
19567;DHT22;9930;49.240;8.548;2023-08-30T22:58:28;19.60;69.10
19567;DHT22;9930;49.240;8.548;2023-08-30T23:01:17;19.60;69.20
19567;DHT22;9930;49.240;8.548;2023-08-30T23:03:46;19.60;69.60
19567;DHT22;9930;49.240;8.548;2023-08-30T23:06:16;19.60;69.40
19567;DHT22;9930;49.240;8.548;2023-08-30T23:08:49;19.60;69.40
19567;DHT22;9930;49.240;8.548;2023-08-30T23:11:44;19.60;69.40
19567;DHT22;9930;49.240;8.548;2023-08-30T23:14:15;19.50;70.10
19567;DHT22;9930;49.240;8.548;2023-08-30T23:16:47;19.50;69.70
19567;DHT22;9930;49.240;8.548;2023-08-30T23:19:19;19.50;69.70
19567;DHT22;9930;49.240;8.548;2023-08-30T23:22:18;19.50;69.70
19567;DHT22;9930;49.240;8.548;2023-08-30T23:24:46;19.40;70.30
19567;DHT22;9930;49.240;8.548;2023-08-30T23:27:20;19.40;69.80
19567;DHT22;9930;49.240;8.548;2023-08-30T23:33:15;19.40;70.50
19567;DHT22;9930;49.240;8.548;2023-08-30T23:35:59;19.30;69.80
19567;DHT22;9930;49.240;8.548;2023-08-30T23:38:54;19.30;71.30
19567;DHT22;9930;49.240;8.548;2023-08-30T23:44:48;19.20;70.40
19567;DHT22;9930;49.240;8.548;2023-08-30T23:47:22;19.20;70.80
19567;DHT22;9930;49.240;8.548;2023-08-30T23:50:00;19.20;70.20
19567;DHT22;9930;49.240;8.548;2023-08-30T23:52:37;19.10;70.30
19567;DHT22;9930;49.240;8.548;2023-08-30T23:55:20;19.10;70.70
19567;DHT22;9930;49.240;8.548;2023-08-30T23:58:16;19.00;70.90
